sensor_id;sensor_type;location;lat;lon;timestamp;temperature;humidity
70366;DHT22;57787;48.216;12.396;2022-12-17T00:01:28;-1.00;88.10
70366;DHT22;57787;48.216;12.396;2022-12-17T00:04:34;-1.00;87.90
70366;DHT22;57787;48.216;12.396;2022-12-17T00:07:40;-1.00;88.10
70366;DHT22;57787;48.216;12.396;2022-12-17T00:11:02;-1.00;88.20
70366;DHT22;57787;48.216;12.396;2022-12-17T00:14:07;-1.00;88.10
70366;DHT22;57787;48.216;12.396;2022-12-17T00:17:13;-1.10;88.20
70366;DHT22;57787;48.216;12.396;2022-12-17T00:20:22;-1.00;88.20
70366;DHT22;57787;48.216;12.396;2022-12-17T00:23:28;-1.00;88.00
70366;DHT22;57787;48.216;12.396;2022-12-17T00:26:42;-1.00;88.20
70366;DHT22;57787;48.216;12.396;2022-12-17T00:33:31;-1.00;88.50
70366;DHT22;57787;48.216;12.396;2022-12-17T00:36:37;-1.00;88.40
70366;DHT22;57787;48.216;12.396;2022-12-17T00:39:49;-1.00;88.40
70366;DHT22;57787;48.216;12.396;2022-12-17T00:43:04;-1.00;88.50
70366;DHT22;57787;48.216;12.396;2022-12-17T00:46:14;-1.00;88.60
70366;DHT22;57787;48.216;12.396;2022-12-17T00:49:22;-1.00;88.60
70366;DHT22;57787;48.216;12.396;2022-12-17T00:52:29;-1.10;88.60
70366;DHT22;57787;48.216;12.396;2022-12-17T00:55:43;-1.10;88.20
70366;DHT22;57787;48.216;12.396;2022-12-17T00:58:52;-1.00;88.40
70366;DHT22;57787;48.216;12.396;2022-12-17T01:06:25;-1.10;88.40
70366;DHT22;57787;48.216;12.396;2022-12-17T01:09:32;-1.10;88.30
70366;DHT22;57787;48.216;12.396;2022-12-17T01:13:02;-1.10;88.40
70366;DHT22;57787;48.216;12.396;2022-12-17T01:16:18;-1.10;88.20
70366;DHT22;57787;48.216;12.396;2022-12-17T01:19:57;-1.10;88.00
70366;DHT22;57787;48.216;12.396;2022-12-17T01:23:11;-1.20;87.70
70366;DHT22;57787;48.216;12.396;2022-12-17T01:26:17;-1.20;87.80
70366;DHT22;57787;48.216;12.396;2022-12-17T01:29:47;-1.20;87.90
70366;DHT22;57787;48.216;12.396;2022-12-17T01:36:38;-1.20;88.10
70366;DHT22;57787;48.216;12.396;2022-12-17T01:39:47;-1.20;87.80
70366;DHT22;57787;48.216;12.396;2022-12-17T01:42:57;-1.20;87.60
70366;DHT22;57787;48.216;12.396;2022-12-17T01:50:24;-1.30;87.20
70366;DHT22;57787;48.216;12.396;2022-12-17T01:57:38;-1.30;87.20
70366;DHT22;57787;48.216;12.396;2022-12-17T02:00:45;-1.30;87.50
70366;DHT22;57787;48.216;12.396;2022-12-17T02:03:59;-1.30;87.50
70366;DHT22;57787;48.216;12.396;2022-12-17T02:14:27;-1.40;87.30
70366;DHT22;57787;48.216;12.396;2022-12-17T02:17:56;-1.40;86.40
70366;DHT22;57787;48.216;12.396;2022-12-17T02:21:05;-1.40;87.00
70366;DHT22;57787;48.216;12.396;2022-12-17T02:27:41;-1.50;86.80
70366;DHT22;57787;48.216;12.396;2022-12-17T02:30:50;-1.50;87.10
70366;DHT22;57787;48.216;12.396;2022-12-17T02:33:56;-1.60;86.80
70366;DHT22;57787;48.216;12.396;2022-12-17T02:37:02;-1.70;86.20
70366;DHT22;57787;48.216;12.396;2022-12-17T02:40:09;-1.80;86.30
70366;DHT22;57787;48.216;12.396;2022-12-17T02:43:15;-1.80;86.60
70366;DHT22;57787;48.216;12.396;2022-12-17T02:46:22;-1.90;86.40
70366;DHT22;57787;48.216;12.396;2022-12-17T02:49:47;-1.90;86.30
70366;DHT22;57787;48.216;12.396;2022-12-17T02:52:58;-2.00;86.10
70366;DHT22;57787;48.216;12.396;2022-12-17T02:56:04;-2.20;86.10
70366;DHT22;57787;48.216;12.396;2022-12-17T02:59:10;-2.20;86.10
70366;DHT22;57787;48.216;12.396;2022-12-17T03:02:16;-2.40;85.80
70366;DHT22;57787;48.216;12.396;2022-12-17T03:05:23;-2.60;85.50
70366;DHT22;57787;48.216;12.396;2022-12-17T03:08:31;-2.70;85.20
70366;DHT22;57787;48.216;12.396;2022-12-17T03:11:41;-2.90;85.20
70366;DHT22;57787;48.216;12.396;2022-12-17T03:14:47;-3.00;85.00
70366;DHT22;57787;48.216;12.396;2022-12-17T03:17:54;-3.20;85.10
70366;DHT22;57787;48.216;12.396;2022-12-17T03:21:00;-3.30;85.30
70366;DHT22;57787;48.216;12.396;2022-12-17T03:24:06;-3.50;85.40
70366;DHT22;57787;48.216;12.396;2022-12-17T03:27:12;-3.50;85.60
70366;DHT22;57787;48.216;12.396;2022-12-17T03:30:22;-3.70;85.20
70366;DHT22;57787;48.216;12.396;2022-12-17T03:33:34;-3.80;85.20
70366;DHT22;57787;48.216;12.396;2022-12-17T03:36:40;-3.90;85.30
70366;DHT22;57787;48.216;12.396;2022-12-17T03:39:46;-4.00;85.30
70366;DHT22;57787;48.216;12.396;2022-12-17T03:42:52;-4.10;85.00
70366;DHT22;57787;48.216;12.396;2022-12-17T03:45:58;-4.20;85.20
70366;DHT22;57787;48.216;12.396;2022-12-17T03:49:04;-4.30;85.60
70366;DHT22;57787;48.216;12.396;2022-12-17T03:52:10;-4.40;85.00
70366;DHT22;57787;48.216;12.396;2022-12-17T03:55:16;-4.50;84.80
70366;DHT22;57787;48.216;12.396;2022-12-17T03:58:21;-4.60;85.10
70366;DHT22;57787;48.216;12.396;2022-12-17T04:01:27;-4.60;85.10
70366;DHT22;57787;48.216;12.396;2022-12-17T04:04:34;-4.70;85.00
70366;DHT22;57787;48.216;12.396;2022-12-17T04:07:40;-4.80;85.10
70366;DHT22;57787;48.216;12.396;2022-12-17T04:10:46;-4.90;85.50
70366;DHT22;57787;48.216;12.396;2022-12-17T04:13:52;-4.90;85.40
70366;DHT22;57787;48.216;12.396;2022-12-17T04:16:58;-4.90;85.10
70366;DHT22;57787;48.216;12.396;2022-12-17T04:20:05;-5.00;85.20
70366;DHT22;57787;48.216;12.396;2022-12-17T04:23:13;-5.10;85.40
70366;DHT22;57787;48.216;12.396;2022-12-17T04:26:20;-5.10;85.40
70366;DHT22;57787;48.216;12.396;2022-12-17T04:29:26;-5.20;85.50
70366;DHT22;57787;48.216;12.396;2022-12-17T04:32:31;-5.20;85.60
70366;DHT22;57787;48.216;12.396;2022-12-17T04:35:37;-5.20;85.90
70366;DHT22;57787;48.216;12.396;2022-12-17T04:38:43;-5.20;85.70
70366;DHT22;57787;48.216;12.396;2022-12-17T04:41:49;-5.30;85.50
70366;DHT22;57787;48.216;12.396;2022-12-17T04:44:55;-5.30;85.50
70366;DHT22;57787;48.216;12.396;2022-12-17T04:48:05;-5.30;85.50
70366;DHT22;57787;48.216;12.396;2022-12-17T04:51:12;-5.30;85.60
70366;DHT22;57787;48.216;12.396;2022-12-17T04:54:18;-5.30;85.50
70366;DHT22;57787;48.216;12.396;2022-12-17T04:57:24;-5.30;85.70
70366;DHT22;57787;48.216;12.396;2022-12-17T05:00:33;-5.30;86.00
70366;DHT22;57787;48.216;12.396;2022-12-17T05:03:39;-5.30;86.20
70366;DHT22;57787;48.216;12.396;2022-12-17T05:06:45;-5.20;86.30
70366;DHT22;57787;48.216;12.396;2022-12-17T05:09:53;-5.20;86.40
70366;DHT22;57787;48.216;12.396;2022-12-17T05:13:00;-5.20;86.40
70366;DHT22;57787;48.216;12.396;2022-12-17T05:16:06;-5.10;86.60
70366;DHT22;57787;48.216;12.396;2022-12-17T05:19:12;-5.10;86.70
70366;DHT22;57787;48.216;12.396;2022-12-17T05:22:18;-5.10;86.40
70366;DHT22;57787;48.216;12.396;2022-12-17T05:25:24;-5.10;86.60
70366;DHT22;57787;48.216;12.396;2022-12-17T05:28:30;-5.10;86.60
70366;DHT22;57787;48.216;12.396;2022-12-17T05:31:37;-5.10;86.80
70366;DHT22;57787;48.216;12.396;2022-12-17T05:34:44;-5.00;86.70
70366;DHT22;57787;48.216;12.396;2022-12-17T05:38:08;-5.00;86.90
70366;DHT22;57787;48.216;12.396;2022-12-17T05:41:15;-5.00;87.00
70366;DHT22;57787;48.216;12.396;2022-12-17T05:44:21;-5.00;87.20
70366;DHT22;57787;48.216;12.396;2022-12-17T05:47:27;-4.90;87.30
70366;DHT22;57787;48.216;12.396;2022-12-17T05:50:34;-4.90;87.40
70366;DHT22;57787;48.216;12.396;2022-12-17T05:53:40;-4.90;87.20
70366;DHT22;57787;48.216;12.396;2022-12-17T05:56:46;-4.80;87.30
70366;DHT22;57787;48.216;12.396;2022-12-17T05:59:52;-4.80;87.50
70366;DHT22;57787;48.216;12.396;2022-12-17T06:03:01;-4.70;87.70
70366;DHT22;57787;48.216;12.396;2022-12-17T06:06:09;-4.60;87.80
70366;DHT22;57787;48.216;12.396;2022-12-17T06:09:16;-4.60;87.90
70366;DHT22;57787;48.216;12.396;2022-12-17T06:12:22;-4.50;88.00
70366;DHT22;57787;48.216;12.396;2022-12-17T06:15:28;-4.50;88.00
70366;DHT22;57787;48.216;12.396;2022-12-17T06:18:42;-4.40;87.90
70366;DHT22;57787;48.216;12.396;2022-12-17T06:21:49;-4.40;87.80
70366;DHT22;57787;48.216;12.396;2022-12-17T06:24:55;-4.50;87.80
70366;DHT22;57787;48.216;12.396;2022-12-17T06:28:01;-4.40;87.70
70366;DHT22;57787;48.216;12.396;2022-12-17T06:31:07;-4.40;87.60
70366;DHT22;57787;48.216;12.396;2022-12-17T06:34:13;-4.40;87.70
70366;DHT22;57787;48.216;12.396;2022-12-17T06:37:23;-4.40;87.60
70366;DHT22;57787;48.216;12.396;2022-12-17T06:40:39;-4.40;87.80
70366;DHT22;57787;48.216;12.396;2022-12-17T06:43:45;-4.40;87.80
70366;DHT22;57787;48.216;12.396;2022-12-17T06:46:51;-4.40;87.80
70366;DHT22;57787;48.216;12.396;2022-12-17T06:49:57;-4.30;87.90
70366;DHT22;57787;48.216;12.396;2022-12-17T06:53:05;-4.30;88.00
70366;DHT22;57787;48.216;12.396;2022-12-17T06:56:17;-4.20;87.90
70366;DHT22;57787;48.216;12.396;2022-12-17T06:59:23;-4.20;87.90
70366;DHT22;57787;48.216;12.396;2022-12-17T07:02:30;-4.20;87.80
70366;DHT22;57787;48.216;12.396;2022-12-17T07:05:36;-4.20;87.80
70366;DHT22;57787;48.216;12.396;2022-12-17T07:08:43;-4.10;87.80
70366;DHT22;57787;48.216;12.396;2022-12-17T07:11:50;-4.10;87.60
70366;DHT22;57787;48.216;12.396;2022-12-17T07:15:03;-4.10;87.70
70366;DHT22;57787;48.216;12.396;2022-12-17T07:18:08;-4.00;87.60
70366;DHT22;57787;48.216;12.396;2022-12-17T07:21:15;-4.00;87.60
70366;DHT22;57787;48.216;12.396;2022-12-17T07:24:29;-3.90;87.80
70366;DHT22;57787;48.216;12.396;2022-12-17T07:27:37;-3.90;87.70
70366;DHT22;57787;48.216;12.396;2022-12-17T07:30:46;-3.80;88.10
70366;DHT22;57787;48.216;12.396;2022-12-17T07:33:54;-3.70;87.70
70366;DHT22;57787;48.216;12.396;2022-12-17T07:37:00;-3.60;87.60
70366;DHT22;57787;48.216;12.396;2022-12-17T07:40:14;-3.50;87.20
70366;DHT22;57787;48.216;12.396;2022-12-17T07:43:21;-3.40;87.30
70366;DHT22;57787;48.216;12.396;2022-12-17T07:46:51;-3.30;87.40
70366;DHT22;57787;48.216;12.396;2022-12-17T07:50:04;-3.10;87.30
70366;DHT22;57787;48.216;12.396;2022-12-17T07:53:13;-3.00;87.00
70366;DHT22;57787;48.216;12.396;2022-12-17T07:56:23;-2.80;87.00
70366;DHT22;57787;48.216;12.396;2022-12-17T07:59:29;-2.70;87.30
70366;DHT22;57787;48.216;12.396;2022-12-17T08:02:37;-2.60;87.30
70366;DHT22;57787;48.216;12.396;2022-12-17T08:05:44;-2.40;87.20
70366;DHT22;57787;48.216;12.396;2022-12-17T08:08:51;-2.30;87.20
70366;DHT22;57787;48.216;12.396;2022-12-17T08:12:07;-2.10;87.00
70366;DHT22;57787;48.216;12.396;2022-12-17T08:15:14;-2.00;86.70
70366;DHT22;57787;48.216;12.396;2022-12-17T08:18:26;-1.90;86.80
70366;DHT22;57787;48.216;12.396;2022-12-17T08:21:34;-1.80;86.20
70366;DHT22;57787;48.216;12.396;2022-12-17T08:24:48;-1.70;86.30
70366;DHT22;57787;48.216;12.396;2022-12-17T08:27:58;-1.60;86.60
70366;DHT22;57787;48.216;12.396;2022-12-17T08:31:25;-1.50;85.30
70366;DHT22;57787;48.216;12.396;2022-12-17T08:34:31;-1.40;85.30
70366;DHT22;57787;48.216;12.396;2022-12-17T08:37:37;-1.40;84.10
70366;DHT22;57787;48.216;12.396;2022-12-17T08:40:43;-1.40;84.90
70366;DHT22;57787;48.216;12.396;2022-12-17T08:43:49;-1.20;85.70
70366;DHT22;57787;48.216;12.396;2022-12-17T08:46:57;-1.00;87.10
70366;DHT22;57787;48.216;12.396;2022-12-17T08:50:10;-0.90;85.30
70366;DHT22;57787;48.216;12.396;2022-12-17T08:53:19;-0.60;86.30
70366;DHT22;57787;48.216;12.396;2022-12-17T08:56:26;-0.50;83.70
70366;DHT22;57787;48.216;12.396;2022-12-17T08:59:32;-0.30;82.60
70366;DHT22;57787;48.216;12.396;2022-12-17T09:02:38;0.00;80.90
70366;DHT22;57787;48.216;12.396;2022-12-17T09:05:44;0.00;80.10
70366;DHT22;57787;48.216;12.396;2022-12-17T09:08:50;0.30;79.60
70366;DHT22;57787;48.216;12.396;2022-12-17T09:11:56;0.30;76.70
70366;DHT22;57787;48.216;12.396;2022-12-17T09:15:03;0.30;77.60
70366;DHT22;57787;48.216;12.396;2022-12-17T09:18:18;0.30;77.00
70366;DHT22;57787;48.216;12.396;2022-12-17T09:21:29;0.30;75.80
70366;DHT22;57787;48.216;12.396;2022-12-17T09:24:35;0.10;76.90
70366;DHT22;57787;48.216;12.396;2022-12-17T09:27:41;0.00;78.00
70366;DHT22;57787;48.216;12.396;2022-12-17T09:30:49;0.00;77.20
70366;DHT22;57787;48.216;12.396;2022-12-17T09:33:55;0.10;77.40
70366;DHT22;57787;48.216;12.396;2022-12-17T09:37:02;0.20;76.80
70366;DHT22;57787;48.216;12.396;2022-12-17T09:40:17;0.30;77.20
70366;DHT22;57787;48.216;12.396;2022-12-17T09:43:55;0.30;76.20
70366;DHT22;57787;48.216;12.396;2022-12-17T09:47:18;0.30;76.30
70366;DHT22;57787;48.216;12.396;2022-12-17T09:50:28;0.40;74.90
70366;DHT22;57787;48.216;12.396;2022-12-17T09:53:41;0.30;74.90
70366;DHT22;57787;48.216;12.396;2022-12-17T09:56:49;0.20;74.60
70366;DHT22;57787;48.216;12.396;2022-12-17T09:59:55;0.10;74.80
70366;DHT22;57787;48.216;12.396;2022-12-17T10:03:09;0.00;75.10
70366;DHT22;57787;48.216;12.396;2022-12-17T10:06:24;-0.20;74.70
70366;DHT22;57787;48.216;12.396;2022-12-17T10:09:34;-0.50;75.60
70366;DHT22;57787;48.216;12.396;2022-12-17T10:12:50;-0.60;74.90
70366;DHT22;57787;48.216;12.396;2022-12-17T10:16:27;-0.70;76.20
70366;DHT22;57787;48.216;12.396;2022-12-17T10:19:40;-0.80;75.80
70366;DHT22;57787;48.216;12.396;2022-12-17T10:22:48;-0.70;77.10
70366;DHT22;57787;48.216;12.396;2022-12-17T10:26:05;-0.70;76.90
70366;DHT22;57787;48.216;12.396;2022-12-17T10:29:14;-0.60;77.20
70366;DHT22;57787;48.216;12.396;2022-12-17T10:32:24;-0.60;76.60
70366;DHT22;57787;48.216;12.396;2022-12-17T10:35:36;-0.60;76.30
70366;DHT22;57787;48.216;12.396;2022-12-17T10:38:53;-0.60;76.10
70366;DHT22;57787;48.216;12.396;2022-12-17T10:42:36;-0.50;76.20
70366;DHT22;57787;48.216;12.396;2022-12-17T10:45:52;-0.40;76.40
70366;DHT22;57787;48.216;12.396;2022-12-17T10:49:13;-0.30;77.30
70366;DHT22;57787;48.216;12.396;2022-12-17T10:52:28;-0.20;76.70
70366;DHT22;57787;48.216;12.396;2022-12-17T10:55:44;-0.10;76.70
70366;DHT22;57787;48.216;12.396;2022-12-17T10:59:09;-0.10;75.90
70366;DHT22;57787;48.216;12.396;2022-12-17T11:02:24;0.00;74.70
70366;DHT22;57787;48.216;12.396;2022-12-17T11:05:29;-0.10;74.70
70366;DHT22;57787;48.216;12.396;2022-12-17T11:08:45;0.00;74.50
70366;DHT22;57787;48.216;12.396;2022-12-17T11:11:51;0.00;75.00
70366;DHT22;57787;48.216;12.396;2022-12-17T11:15:02;0.00;74.40
70366;DHT22;57787;48.216;12.396;2022-12-17T11:18:17;0.00;73.90
70366;DHT22;57787;48.216;12.396;2022-12-17T11:21:28;0.00;73.60
70366;DHT22;57787;48.216;12.396;2022-12-17T11:28:25;0.00;74.00
70366;DHT22;57787;48.216;12.396;2022-12-17T11:35:25;0.00;74.50
70366;DHT22;57787;48.216;12.396;2022-12-17T11:45:38;-0.10;74.50
70366;DHT22;57787;48.216;12.396;2022-12-17T11:52:57;-0.10;74.00
70366;DHT22;57787;48.216;12.396;2022-12-17T11:56:24;0.00;74.90
70366;DHT22;57787;48.216;12.396;2022-12-17T11:59:44;-0.10;74.20
70366;DHT22;57787;48.216;12.396;2022-12-17T12:09:49;-0.20;73.90
70366;DHT22;57787;48.216;12.396;2022-12-17T12:13:09;-0.30;74.50
70366;DHT22;57787;48.216;12.396;2022-12-17T12:16:32;-0.30;74.30
70366;DHT22;57787;48.216;12.396;2022-12-17T12:20:01;-0.40;74.20
70366;DHT22;57787;48.216;12.396;2022-12-17T12:26:38;-0.50;74.70
70366;DHT22;57787;48.216;12.396;2022-12-17T12:36:31;-0.40;75.10
70366;DHT22;57787;48.216;12.396;2022-12-17T12:40:05;-0.40;75.30
70366;DHT22;57787;48.216;12.396;2022-12-17T12:43:19;-0.60;74.60
70366;DHT22;57787;48.216;12.396;2022-12-17T12:53:11;-0.60;75.80
70366;DHT22;57787;48.216;12.396;2022-12-17T12:56:43;-0.60;75.90
70366;DHT22;57787;48.216;12.396;2022-12-17T12:59:49;-0.60;75.70
70366;DHT22;57787;48.216;12.396;2022-12-17T13:03:07;-0.60;75.70
70366;DHT22;57787;48.216;12.396;2022-12-17T13:12:39;-0.70;75.90
70366;DHT22;57787;48.216;12.396;2022-12-17T13:15:52;-0.70;76.50
70366;DHT22;57787;48.216;12.396;2022-12-17T13:18:39;-0.70;76.00
70366;DHT22;57787;48.216;12.396;2022-12-17T13:21:29;-0.70;75.90
70366;DHT22;57787;48.216;12.396;2022-12-17T13:24:23;-0.70;76.30
70366;DHT22;57787;48.216;12.396;2022-12-17T13:30:28;-0.80;76.20
70366;DHT22;57787;48.216;12.396;2022-12-17T13:33:52;-0.80;76.20
70366;DHT22;57787;48.216;12.396;2022-12-17T13:36:54;-0.90;76.10
70366;DHT22;57787;48.216;12.396;2022-12-17T13:40:08;-1.00;76.50
70366;DHT22;57787;48.216;12.396;2022-12-17T13:43:00;-1.10;77.00
70366;DHT22;57787;48.216;12.396;2022-12-17T13:45:51;-1.10;76.50
70366;DHT22;57787;48.216;12.396;2022-12-17T13:48:39;-1.20;77.20
70366;DHT22;57787;48.216;12.396;2022-12-17T13:51:30;-1.30;76.60
70366;DHT22;57787;48.216;12.396;2022-12-17T14:01:07;-1.50;77.60
70366;DHT22;57787;48.216;12.396;2022-12-17T14:03:56;-1.50;77.20
70366;DHT22;57787;48.216;12.396;2022-12-17T14:06:53;-1.60;77.50
70366;DHT22;57787;48.216;12.396;2022-12-17T14:09:41;-1.80;77.10
70366;DHT22;57787;48.216;12.396;2022-12-17T14:12:56;-1.80;77.60
70366;DHT22;57787;48.216;12.396;2022-12-17T14:16:38;-1.90;77.80
70366;DHT22;57787;48.216;12.396;2022-12-17T14:19:16;-2.00;78.20
70366;DHT22;57787;48.216;12.396;2022-12-17T14:21:46;-2.10;78.10
70366;DHT22;57787;48.216;12.396;2022-12-17T14:24:15;-2.20;78.30
70366;DHT22;57787;48.216;12.396;2022-12-17T14:31:56;-2.30;78.90
70366;DHT22;57787;48.216;12.396;2022-12-17T14:34:24;-2.40;78.90
70366;DHT22;57787;48.216;12.396;2022-12-17T14:36:58;-2.50;79.00
70366;DHT22;57787;48.216;12.396;2022-12-17T14:48:28;-2.80;79.40
70366;DHT22;57787;48.216;12.396;2022-12-17T14:51:35;-3.00;79.70
70366;DHT22;57787;48.216;12.396;2022-12-17T14:57:38;-3.30;80.80
70366;DHT22;57787;48.216;12.396;2022-12-17T15:03:31;-3.50;80.90
70366;DHT22;57787;48.216;12.396;2022-12-17T15:10:19;-3.70;80.70
70366;DHT22;57787;48.216;12.396;2022-12-17T15:12:48;-3.90;80.70
70366;DHT22;57787;48.216;12.396;2022-12-17T15:15:20;-4.00;80.20
70366;DHT22;57787;48.216;12.396;2022-12-17T15:17:50;-4.10;80.70
70366;DHT22;57787;48.216;12.396;2022-12-17T15:20:19;-4.30;80.60
70366;DHT22;57787;48.216;12.396;2022-12-17T15:22:47;-4.40;80.60
70366;DHT22;57787;48.216;12.396;2022-12-17T15:25:15;-4.50;80.40
70366;DHT22;57787;48.216;12.396;2022-12-17T15:27:44;-4.60;79.50
70366;DHT22;57787;48.216;12.396;2022-12-17T15:30:16;-4.80;79.00
70366;DHT22;57787;48.216;12.396;2022-12-17T15:33:03;-4.90;79.40
70366;DHT22;57787;48.216;12.396;2022-12-17T15:35:57;-5.00;78.70
70366;DHT22;57787;48.216;12.396;2022-12-17T15:38:43;-5.20;78.70
70366;DHT22;57787;48.216;12.396;2022-12-17T15:41:40;-5.30;78.90
70366;DHT22;57787;48.216;12.396;2022-12-17T15:44:45;-5.40;79.20
70366;DHT22;57787;48.216;12.396;2022-12-17T15:47:32;-5.50;79.70
70366;DHT22;57787;48.216;12.396;2022-12-17T15:50:28;-5.60;79.80
70366;DHT22;57787;48.216;12.396;2022-12-17T16:05:19;-5.70;79.80
70366;DHT22;57787;48.216;12.396;2022-12-17T16:07:54;-6.00;80.30
70366;DHT22;57787;48.216;12.396;2022-12-17T16:10:25;-6.10;79.50
70366;DHT22;57787;48.216;12.396;2022-12-17T16:12:53;-6.30;78.90
70366;DHT22;57787;48.216;12.396;2022-12-17T16:15:20;-6.40;78.60
70366;DHT22;57787;48.216;12.396;2022-12-17T16:17:48;-6.50;78.90
70366;DHT22;57787;48.216;12.396;2022-12-17T16:20:16;-6.60;78.70
70366;DHT22;57787;48.216;12.396;2022-12-17T16:22:46;-6.60;79.00
70366;DHT22;57787;48.216;12.396;2022-12-17T16:25:14;-6.80;78.90
70366;DHT22;57787;48.216;12.396;2022-12-17T16:27:44;-6.80;78.80
70366;DHT22;57787;48.216;12.396;2022-12-17T16:30:13;-6.90;79.00
70366;DHT22;57787;48.216;12.396;2022-12-17T16:32:40;-6.90;79.00
70366;DHT22;57787;48.216;12.396;2022-12-17T16:35:07;-7.00;79.30
70366;DHT22;57787;48.216;12.396;2022-12-17T16:37:34;-7.00;79.70
70366;DHT22;57787;48.216;12.396;2022-12-17T16:40:01;-7.00;80.00
70366;DHT22;57787;48.216;12.396;2022-12-17T16:42:28;-7.10;79.70
70366;DHT22;57787;48.216;12.396;2022-12-17T16:44:55;-7.10;80.20
70366;DHT22;57787;48.216;12.396;2022-12-17T16:47:23;-7.10;80.00
70366;DHT22;57787;48.216;12.396;2022-12-17T16:49:52;-7.20;80.00
70366;DHT22;57787;48.216;12.396;2022-12-17T16:52:20;-7.20;80.70
70366;DHT22;57787;48.216;12.396;2022-12-17T16:54:48;-7.20;80.70
70366;DHT22;57787;48.216;12.396;2022-12-17T16:57:16;-7.20;80.80
70366;DHT22;57787;48.216;12.396;2022-12-17T16:59:43;-7.30;80.50
70366;DHT22;57787;48.216;12.396;2022-12-17T17:02:14;-7.30;80.20
70366;DHT22;57787;48.216;12.396;2022-12-17T17:04:41;-7.40;79.90
70366;DHT22;57787;48.216;12.396;2022-12-17T17:07:08;-7.50;79.80
70366;DHT22;57787;48.216;12.396;2022-12-17T17:09:36;-7.60;79.50
70366;DHT22;57787;48.216;12.396;2022-12-17T17:12:04;-7.60;79.60
70366;DHT22;57787;48.216;12.396;2022-12-17T17:14:41;-7.60;80.00
70366;DHT22;57787;48.216;12.396;2022-12-17T17:17:10;-7.70;80.00
70366;DHT22;57787;48.216;12.396;2022-12-17T17:19:43;-7.70;80.20
70366;DHT22;57787;48.216;12.396;2022-12-17T17:22:10;-7.70;80.10
70366;DHT22;57787;48.216;12.396;2022-12-17T17:24:40;-7.80;80.30
70366;DHT22;57787;48.216;12.396;2022-12-17T17:27:07;-7.80;80.60
70366;DHT22;57787;48.216;12.396;2022-12-17T17:29:34;-7.80;80.70
70366;DHT22;57787;48.216;12.396;2022-12-17T17:32:00;-7.90;80.40
70366;DHT22;57787;48.216;12.396;2022-12-17T17:34:38;-7.90;80.10
70366;DHT22;57787;48.216;12.396;2022-12-17T17:37:05;-8.00;79.70
70366;DHT22;57787;48.216;12.396;2022-12-17T17:39:32;-8.00;79.70
70366;DHT22;57787;48.216;12.396;2022-12-17T17:42:00;-8.10;79.60
70366;DHT22;57787;48.216;12.396;2022-12-17T17:44:27;-8.10;79.20
70366;DHT22;57787;48.216;12.396;2022-12-17T17:46:53;-8.20;79.60
70366;DHT22;57787;48.216;12.396;2022-12-17T17:49:21;-8.20;79.70
70366;DHT22;57787;48.216;12.396;2022-12-17T17:51:48;-8.30;80.50
70366;DHT22;57787;48.216;12.396;2022-12-17T17:54:41;-8.30;80.30
70366;DHT22;57787;48.216;12.396;2022-12-17T17:57:08;-8.40;80.30
70366;DHT22;57787;48.216;12.396;2022-12-17T17:59:38;-8.40;79.90
70366;DHT22;57787;48.216;12.396;2022-12-17T18:02:08;-8.50;80.00
70366;DHT22;57787;48.216;12.396;2022-12-17T18:04:39;-8.50;79.80
70366;DHT22;57787;48.216;12.396;2022-12-17T18:07:10;-8.50;79.50
70366;DHT22;57787;48.216;12.396;2022-12-17T18:09:55;-8.60;79.60
70366;DHT22;57787;48.216;12.396;2022-12-17T18:12:22;-8.60;79.60
70366;DHT22;57787;48.216;12.396;2022-12-17T18:15:09;-8.70;79.60
70366;DHT22;57787;48.216;12.396;2022-12-17T18:17:43;-8.70;79.90
70366;DHT22;57787;48.216;12.396;2022-12-17T18:20:11;-8.70;80.60
70366;DHT22;57787;48.216;12.396;2022-12-17T18:22:41;-8.70;80.00
70366;DHT22;57787;48.216;12.396;2022-12-17T18:25:08;-8.80;80.20
70366;DHT22;57787;48.216;12.396;2022-12-17T18:27:36;-8.80;80.10
70366;DHT22;57787;48.216;12.396;2022-12-17T18:30:05;-8.80;79.80
70366;DHT22;57787;48.216;12.396;2022-12-17T18:32:31;-8.80;79.80
70366;DHT22;57787;48.216;12.396;2022-12-17T18:34:58;-8.80;80.60
70366;DHT22;57787;48.216;12.396;2022-12-17T18:37:30;-8.80;81.10
70366;DHT22;57787;48.216;12.396;2022-12-17T18:39:56;-8.60;81.60
70366;DHT22;57787;48.216;12.396;2022-12-17T18:42:23;-8.60;82.20
70366;DHT22;57787;48.216;12.396;2022-12-17T18:45:13;-8.40;82.90
70366;DHT22;57787;48.216;12.396;2022-12-17T18:47:40;-8.40;82.80
70366;DHT22;57787;48.216;12.396;2022-12-17T18:50:08;-8.30;82.30
70366;DHT22;57787;48.216;12.396;2022-12-17T18:52:36;-8.30;82.30
70366;DHT22;57787;48.216;12.396;2022-12-17T18:55:04;-8.20;82.30
70366;DHT22;57787;48.216;12.396;2022-12-17T18:57:31;-8.20;82.30
70366;DHT22;57787;48.216;12.396;2022-12-17T19:00:00;-8.10;82.20
70366;DHT22;57787;48.216;12.396;2022-12-17T19:02:27;-8.10;82.10
70366;DHT22;57787;48.216;12.396;2022-12-17T19:04:55;-8.00;82.30
70366;DHT22;57787;48.216;12.396;2022-12-17T19:07:23;-8.00;82.40
70366;DHT22;57787;48.216;12.396;2022-12-17T19:09:52;-7.90;82.50
70366;DHT22;57787;48.216;12.396;2022-12-17T19:12:19;-7.80;82.60
70366;DHT22;57787;48.216;12.396;2022-12-17T19:14:47;-7.70;82.70
70366;DHT22;57787;48.216;12.396;2022-12-17T19:17:14;-7.60;83.00
70366;DHT22;57787;48.216;12.396;2022-12-17T19:19:40;-7.60;82.50
70366;DHT22;57787;48.216;12.396;2022-12-17T19:22:13;-7.60;82.60
70366;DHT22;57787;48.216;12.396;2022-12-17T19:24:42;-7.50;82.60
70366;DHT22;57787;48.216;12.396;2022-12-17T19:27:09;-7.40;83.10
70366;DHT22;57787;48.216;12.396;2022-12-17T19:29:37;-7.30;83.50
70366;DHT22;57787;48.216;12.396;2022-12-17T19:32:05;-7.30;83.40
70366;DHT22;57787;48.216;12.396;2022-12-17T19:34:32;-7.20;83.80
70366;DHT22;57787;48.216;12.396;2022-12-17T19:37:00;-7.10;84.10
70366;DHT22;57787;48.216;12.396;2022-12-17T19:39:28;-7.00;83.50
70366;DHT22;57787;48.216;12.396;2022-12-17T19:41:59;-7.00;83.60
70366;DHT22;57787;48.216;12.396;2022-12-17T19:44:26;-6.90;83.70
70366;DHT22;57787;48.216;12.396;2022-12-17T19:46:54;-6.90;83.60
70366;DHT22;57787;48.216;12.396;2022-12-17T19:49:23;-6.80;84.20
70366;DHT22;57787;48.216;12.396;2022-12-17T19:51:51;-6.70;84.50
70366;DHT22;57787;48.216;12.396;2022-12-17T19:54:18;-6.70;84.30
70366;DHT22;57787;48.216;12.396;2022-12-17T19:56:45;-6.60;84.20
70366;DHT22;57787;48.216;12.396;2022-12-17T19:59:12;-6.60;84.10
70366;DHT22;57787;48.216;12.396;2022-12-17T20:01:44;-6.50;84.20
70366;DHT22;57787;48.216;12.396;2022-12-17T20:04:13;-6.50;84.40
70366;DHT22;57787;48.216;12.396;2022-12-17T20:06:41;-6.40;84.20
70366;DHT22;57787;48.216;12.396;2022-12-17T20:09:11;-6.40;84.20
70366;DHT22;57787;48.216;12.396;2022-12-17T20:11:39;-6.30;84.30
70366;DHT22;57787;48.216;12.396;2022-12-17T20:14:16;-6.30;84.40
70366;DHT22;57787;48.216;12.396;2022-12-17T20:16:47;-6.30;84.40
70366;DHT22;57787;48.216;12.396;2022-12-17T20:19:25;-6.20;84.50
70366;DHT22;57787;48.216;12.396;2022-12-17T20:21:53;-6.20;84.30
70366;DHT22;57787;48.216;12.396;2022-12-17T20:24:22;-6.10;84.30